This demonstration page uses our WeatherBlox Daily Observations layout. Learn more.

38.88101, -77.10428

Hourly Observations for March 26, 2016

Temp ( °F °C ) Dew Point ( °F °C ) Humidity (%) Winds ( mph kmh ) Pressure ( in mb ) Visibility ( mi km ) Precip ( " mm )
12:52 am 00:52 Mostly Cloudy 49 9.4 33 0.6 55 55 NNW 17 28 30.12 1020 10 16.09344 0 0
1:52 am 01:52 Partly Cloudy 48 8.9 33 0.6 56 56 NNW 14 22 30.15 1021 10 16.09344 0 0
2:52 am 02:52 Partly Cloudy 47 8.3 32 0 56 56 N 14 22 30.15 1021 10 16.09344 0 0
3:52 am 03:52 Mostly Clear 45 7.2 32 0 61 61 N 13 20 30.18 1022 10 16.09344 0 0
4:52 am 04:52 Partly Cloudy 43 6.1 30 -1.1 60 60 N 14 22 30.21 1023 10 16.09344 0 0
5:52 am 05:52 Partly Cloudy 42 5.6 29 -1.7 60 60 N 13 20 30.21 1023 10 16.09344 0 0
6:52 am 06:52 Partly Cloudy 41 5 29 -1.7 62 62 N 14 22 30.24 1024 10 16.09344 0 0
7:52 am 07:52 Partly Cloudy 41 5 29 -1.7 62 62 N 13 20 30.27 1025 10 16.09344 0 0
8:52 am 08:52 Partly Cloudy 43 6.1 29 -1.7 58 58 NNE 14 22 30.3 1026 10 16.09344 0 0
9:52 am 09:52 Mostly Sunny 45 7.2 30 -1.1 56 56 E 7 11 30.33 1027 10 16.09344 0 0
10:52 am 10:52 Mostly Sunny 48 8.9 30 -1.1 50 50 Calm 30.33 1027 10 16.09344 0 0
11:52 am 11:52 Mostly Sunny 50 10 31 -0.6 48 48 N 3 6 30.33 1027 10 16.09344 0 0
12:52 pm 12:52 Sunny 52 11.1 32 0 47 47 Calm 30.3 1026 10 16.09344 0 0
1:52 pm 13:52 Sunny 55 12.8 34 1.1 45 45 WSW 5 7 30.3 1026 10 16.09344 0 0
2:52 pm 14:52 Mostly Sunny 58 14.4 35 1.7 42 42 ENE 3 6 30.27 1025 10 16.09344 0 0
3:52 pm 15:52 Mostly Cloudy 59 15 35 1.7 41 41 Calm 30.27 1025 10 16.09344 0 0
4:52 pm 16:52 Mostly Cloudy 61 16.1 36 2.2 39 39 Calm 30.24 1024 10 16.09344 0 0
5:52 pm 17:52 Mostly Cloudy 60 15.6 37 2.8 42 42 Calm 30.24 1024 10 16.09344 0 0
6:52 pm 18:52 Mostly Cloudy 56 13.3 38 3.3 51 51 SE 9 15 30.27 1025 10 16.09344 0 0
7:52 pm 19:52 Cloudy 55 12.8 37 2.8 51 51 ESE 6 9 30.3 1026 10 16.09344 0 0
8:52 pm 20:52 Cloudy 56 13.3 40 4.4 55 55 SE 5 7 30.3 1026 10 16.09344 0 0
9:52 pm 21:52 Cloudy 56 13.3 41 5 57 57 SE 7 11 30.33 1027 10 16.09344 0 0
10:52 pm 22:52 Cloudy 55 12.8 42 5.6 62 62 ESE 7 11 30.3 1026 10 16.09344 0 0
11:52 pm 23:52 Cloudy 54 12.2 44 6.7 69 69 SE 10 17 30.33 1027 10 16.09344 0 0

Powered by AerisWeather